sensor_id;sensor_type;location;lat;lon;timestamp;pressure;altitude;pressure_sealevel;temperature;humidity
75938;BME280;64615;32.062;34.834;2023-06-24T00:01:26;100425.91;;;26.59;63.80
75938;BME280;64615;32.062;34.834;2023-06-24T00:03:52;100410.34;;;26.60;64.10
75938;BME280;64615;32.062;34.834;2023-06-24T00:06:21;100414.97;;;26.59;63.86
75938;BME280;64615;32.062;34.834;2023-06-24T00:08:51;100418.53;;;26.60;63.78
75938;BME280;64615;32.062;34.834;2023-06-24T00:11:17;100414.97;;;26.59;63.99
75938;BME280;64615;32.062;34.834;2023-06-24T00:13:44;100412.84;;;26.56;63.76
75938;BME280;64615;32.062;34.834;2023-06-24T00:16:10;100410.13;;;26.56;64.03
75938;BME280;64615;32.062;34.834;2023-06-24T00:18:37;100412.56;;;26.58;64.18
75938;BME280;64615;32.062;34.834;2023-06-24T00:21:06;100408.25;;;26.51;64.24
75938;BME280;64615;32.062;34.834;2023-06-24T00:23:32;100408.84;;;26.48;64.28
75938;BME280;64615;32.062;34.834;2023-06-24T00:26:00;100409.44;;;26.45;64.12
75938;BME280;64615;32.062;34.834;2023-06-24T00:28:26;100409.72;;;26.44;64.05
75938;BME280;64615;32.062;34.834;2023-06-24T00:30:52;100410.53;;;26.44;64.02
75938;BME280;64615;32.062;34.834;2023-06-24T00:33:18;100405.06;;;26.44;64.23
75938;BME280;64615;32.062;34.834;2023-06-24T00:35:45;100404.78;;;26.46;64.03
75938;BME280;64615;32.062;34.834;2023-06-24T00:38:11;100402.06;;;26.46;63.90
75938;BME280;64615;32.062;34.834;2023-06-24T00:40:38;100408.13;;;26.43;64.19
75938;BME280;64615;32.062;34.834;2023-06-24T00:43:05;100411.94;;;26.42;64.27
75938;BME280;64615;32.062;34.834;2023-06-24T00:45:31;100399.66;;;26.39;64.23
75938;BME280;64615;32.062;34.834;2023-06-24T00:48:00;100421.81;;;26.38;64.37
75938;BME280;64615;32.062;34.834;2023-06-24T00:50:26;100413.91;;;26.36;64.13
75938;BME280;64615;32.062;34.834;2023-06-24T00:52:52;100421.56;;;26.34;64.22
75938;BME280;64615;32.062;34.834;2023-06-24T00:55:18;100410.16;;;26.32;64.28
75938;BME280;64615;32.062;34.834;2023-06-24T00:57:49;100409.34;;;26.32;64.13
75938;BME280;64615;32.062;34.834;2023-06-24T01:00:20;100420.25;;;26.32;64.43
75938;BME280;64615;32.062;34.834;2023-06-24T01:02:48;100421.84;;;26.33;64.27
75938;BME280;64615;32.062;34.834;2023-06-24T01:05:15;100424.06;;;26.31;64.46
75938;BME280;64615;32.062;34.834;2023-06-24T01:07:42;100424.88;;;26.31;64.14
75938;BME280;64615;32.062;34.834;2023-06-24T01:10:09;100428.72;;;26.30;64.32
75938;BME280;64615;32.062;34.834;2023-06-24T01:12:39;100434.44;;;26.29;64.48
75938;BME280;64615;32.062;34.834;2023-06-24T01:15:07;100429.00;;;26.29;64.34
75938;BME280;64615;32.062;34.834;2023-06-24T01:17:35;100427.91;;;26.30;64.07
75938;BME280;64615;32.062;34.834;2023-06-24T01:25:42;100427.38;;;26.28;64.21
75938;BME280;64615;32.062;34.834;2023-06-24T01:33:55;100432.53;;;26.29;64.18
75938;BME280;64615;32.062;34.834;2023-06-24T01:36:25;100436.38;;;26.28;64.19
75938;BME280;64615;32.062;34.834;2023-06-24T01:39:02;100438.28;;;26.28;64.31
75938;BME280;64615;32.062;34.834;2023-06-24T01:41:32;100438.28;;;26.28;64.13
75938;BME280;64615;32.062;34.834;2023-06-24T01:44:00;100436.69;;;26.27;64.13
75938;BME280;64615;32.062;34.834;2023-06-24T01:46:29;100436.69;;;26.27;64.22
75938;BME280;64615;32.062;34.834;2023-06-24T01:48:57;100433.41;;;26.25;64.17
75938;BME280;64615;32.062;34.834;2023-06-24T01:51:23;100437.50;;;26.27;64.32
75938;BME280;64615;32.062;34.834;2023-06-24T01:53:58;100440.72;;;26.29;63.97
75938;BME280;64615;32.062;34.834;2023-06-24T01:56:25;100445.09;;;26.30;64.15
75938;BME280;64615;32.062;34.834;2023-06-24T01:58:53;100445.91;;;26.31;64.20
75938;BME280;64615;32.062;34.834;2023-06-24T02:01:20;100454.31;;;26.34;63.79
75938;BME280;64615;32.062;34.834;2023-06-24T02:03:48;100443.13;;;26.36;63.59
75938;BME280;64615;32.062;34.834;2023-06-24T02:06:15;100444.44;;;26.38;63.52
75938;BME280;64615;32.062;34.834;2023-06-24T02:08:43;100439.28;;;26.37;63.71
75938;BME280;64615;32.062;34.834;2023-06-24T02:11:10;100440.09;;;26.37;63.59
75938;BME280;64615;32.062;34.834;2023-06-24T02:13:38;100437.06;;;26.39;63.70
75938;BME280;64615;32.062;34.834;2023-06-24T02:16:06;100432.91;;;26.17;65.05
75938;BME280;64615;32.062;34.834;2023-06-24T02:18:38;100449.72;;;25.72;67.77
75938;BME280;64615;32.062;34.834;2023-06-24T02:21:08;100443.41;;;25.77;67.02
75938;BME280;64615;32.062;34.834;2023-06-24T02:23:36;100451.16;;;25.93;66.78
75938;BME280;64615;32.062;34.834;2023-06-24T02:26:03;100448.63;;;26.02;66.24
75938;BME280;64615;32.062;34.834;2023-06-24T02:28:31;100443.09;;;26.07;65.75
75938;BME280;64615;32.062;34.834;2023-06-24T02:30:58;100445.28;;;26.10;65.74
75938;BME280;64615;32.062;34.834;2023-06-24T02:33:25;100462.16;;;26.12;65.62
75938;BME280;64615;32.062;34.834;2023-06-24T02:35:52;100462.41;;;26.15;65.21
75938;BME280;64615;32.062;34.834;2023-06-24T02:38:18;100458.59;;;26.17;65.39
75938;BME280;64615;32.062;34.834;2023-06-24T02:40:45;100458.59;;;26.17;65.04
75938;BME280;64615;32.062;34.834;2023-06-24T02:43:11;100457.47;;;26.17;65.24
75938;BME280;64615;32.062;34.834;2023-06-24T02:45:38;100454.72;;;26.17;64.78
75938;BME280;64615;32.062;34.834;2023-06-24T02:48:04;100456.38;;;26.19;65.01
75938;BME280;64615;32.062;34.834;2023-06-24T02:50:33;100454.44;;;26.19;64.80
75938;BME280;64615;32.062;34.834;2023-06-24T02:52:59;100455.00;;;26.21;64.73
75938;BME280;64615;32.062;34.834;2023-06-24T02:55:26;100454.16;;;26.21;64.52
75938;BME280;64615;32.062;34.834;2023-06-24T02:57:52;100451.44;;;26.21;64.48
75938;BME280;64615;32.062;34.834;2023-06-24T03:00:18;100457.44;;;26.23;64.79
75938;BME280;64615;32.062;34.834;2023-06-24T03:02:46;100461.78;;;26.24;64.76
75938;BME280;64615;32.062;34.834;2023-06-24T03:05:15;100471.63;;;26.25;64.77
75938;BME280;64615;32.062;34.834;2023-06-24T03:07:42;100469.72;;;26.25;64.17
75938;BME280;64615;32.062;34.834;2023-06-24T03:10:08;100470.25;;;26.27;64.53
75938;BME280;64615;32.062;34.834;2023-06-24T03:12:36;100469.88;;;26.34;64.13
75938;BME280;64615;32.062;34.834;2023-06-24T03:15:01;100480.19;;;26.42;63.82
75938;BME280;64615;32.062;34.834;2023-06-24T03:17:27;100480.94;;;26.47;63.66
75938;BME280;64615;32.062;34.834;2023-06-24T03:19:53;100477.63;;;26.50;63.30
75938;BME280;64615;32.062;34.834;2023-06-24T03:22:18;100493.66;;;26.57;63.29
75938;BME280;64615;32.062;34.834;2023-06-24T03:24:45;100489.22;;;26.61;63.28
75938;BME280;64615;32.062;34.834;2023-06-24T03:27:10;100496.22;;;26.72;62.74
75938;BME280;64615;32.062;34.834;2023-06-24T03:29:36;100494.09;;;26.64;63.38
75938;BME280;64615;32.062;34.834;2023-06-24T03:32:02;100503.69;;;26.62;63.80
75938;BME280;64615;32.062;34.834;2023-06-24T03:34:27;100505.84;;;26.65;63.79
75938;BME280;64615;32.062;34.834;2023-06-24T03:36:54;100507.72;;;26.69;63.37
75938;BME280;64615;32.062;34.834;2023-06-24T03:39:20;100512.88;;;26.71;63.16
75938;BME280;64615;32.062;34.834;2023-06-24T03:41:46;100511.56;;;26.68;63.09
75938;BME280;64615;32.062;34.834;2023-06-24T03:44:11;100513.69;;;26.71;63.17
75938;BME280;64615;32.062;34.834;2023-06-24T03:46:37;100516.63;;;26.75;63.25
75938;BME280;64615;32.062;34.834;2023-06-24T03:49:03;100519.69;;;26.73;62.90
75938;BME280;64615;32.062;34.834;2023-06-24T03:51:29;100514.50;;;26.72;63.11
75938;BME280;64615;32.062;34.834;2023-06-24T03:53:54;100512.59;;;26.72;62.79
75938;BME280;64615;32.062;34.834;2023-06-24T03:56:20;100514.22;;;26.73;62.53
75938;BME280;64615;32.062;34.834;2023-06-24T03:58:46;100523.22;;;26.74;62.39
75938;BME280;64615;32.062;34.834;2023-06-24T04:01:11;100523.72;;;26.76;62.34
75938;BME280;64615;32.062;34.834;2023-06-24T04:03:37;100527.22;;;26.81;62.30
75938;BME280;64615;32.062;34.834;2023-06-24T04:06:03;100536.19;;;26.87;62.24
75938;BME280;64615;32.062;34.834;2023-06-24T04:08:28;100538.09;;;26.86;61.74
75938;BME280;64615;32.062;34.834;2023-06-24T04:10:56;100539.75;;;26.87;61.71
75938;BME280;64615;32.062;34.834;2023-06-24T04:13:22;100536.75;;;26.89;61.86
75938;BME280;64615;32.062;34.834;2023-06-24T04:15:48;100530.19;;;26.90;61.47
75938;BME280;64615;32.062;34.834;2023-06-24T04:18:13;100536.13;;;26.92;61.10
75938;BME280;64615;32.062;34.834;2023-06-24T04:20:39;100527.59;;;26.98;60.93
75938;BME280;64615;32.062;34.834;2023-06-24T04:23:05;100533.06;;;26.98;60.60
75938;BME280;64615;32.062;34.834;2023-06-24T04:25:31;100541.25;;;26.98;61.19
75938;BME280;64615;32.062;34.834;2023-06-24T04:27:57;100537.72;;;26.98;61.04
75938;BME280;64615;32.062;34.834;2023-06-24T04:30:22;100537.13;;;27.01;60.63
75938;BME280;64615;32.062;34.834;2023-06-24T04:32:48;100545.03;;;27.03;60.63
75938;BME280;64615;32.062;34.834;2023-06-24T04:35:14;100539.28;;;27.04;60.37
75938;BME280;64615;32.062;34.834;2023-06-24T04:37:39;100538.41;;;27.09;59.93
75938;BME280;64615;32.062;34.834;2023-06-24T04:40:05;100542.97;;;27.13;59.69
75938;BME280;64615;32.062;34.834;2023-06-24T04:42:31;100537.44;;;27.18;59.26
75938;BME280;64615;32.062;34.834;2023-06-24T04:44:57;100545.66;;;27.18;59.69
75938;BME280;64615;32.062;34.834;2023-06-24T04:47:22;100544.53;;;27.19;59.21
75938;BME280;64615;32.062;34.834;2023-06-24T04:49:48;100535.00;;;27.17;59.38
75938;BME280;64615;32.062;34.834;2023-06-24T04:52:14;100551.72;;;27.15;59.71
75938;BME280;64615;32.062;34.834;2023-06-24T04:54:39;100547.56;;;27.18;59.37
75938;BME280;64615;32.062;34.834;2023-06-24T04:57:08;100547.28;;;27.19;59.30
75938;BME280;64615;32.062;34.834;2023-06-24T04:59:34;100550.00;;;27.19;59.65
75938;BME280;64615;32.062;34.834;2023-06-24T05:02:00;100560.66;;;27.21;59.62
75938;BME280;64615;32.062;34.834;2023-06-24T05:04:25;100555.94;;;27.26;59.37
75938;BME280;64615;32.062;34.834;2023-06-24T05:06:52;100558.34;;;27.28;59.40
75938;BME280;64615;32.062;34.834;2023-06-24T05:09:18;100558.28;;;27.33;59.19
75938;BME280;64615;32.062;34.834;2023-06-24T05:11:43;100564.81;;;27.37;59.37
75938;BME280;64615;32.062;34.834;2023-06-24T05:14:09;100569.47;;;27.36;59.14
75938;BME280;64615;32.062;34.834;2023-06-24T05:16:35;100567.03;;;27.35;59.17
75938;BME280;64615;32.062;34.834;2023-06-24T05:19:01;100566.97;;;27.40;59.64
75938;BME280;64615;32.062;34.834;2023-06-24T05:21:27;100566.13;;;27.39;59.36
75938;BME280;64615;32.062;34.834;2023-06-24T05:23:52;100561.78;;;27.38;60.14
75938;BME280;64615;32.062;34.834;2023-06-24T05:26:18;100561.19;;;27.42;59.88
75938;BME280;64615;32.062;34.834;2023-06-24T05:28:43;100564.97;;;27.46;59.79
75938;BME280;64615;32.062;34.834;2023-06-24T05:31:09;100565.78;;;27.46;59.68
75938;BME280;64615;32.062;34.834;2023-06-24T05:33:34;100554.84;;;27.46;59.77
75938;BME280;64615;32.062;34.834;2023-06-24T05:36:00;100562.81;;;27.42;59.68
75938;BME280;64615;32.062;34.834;2023-06-24T05:38:26;100562.00;;;27.42;59.94
75938;BME280;64615;32.062;34.834;2023-06-24T05:40:51;100554.09;;;27.40;60.03
75938;BME280;64615;32.062;34.834;2023-06-24T05:43:17;100556.84;;;27.40;60.08
75938;BME280;64615;32.062;34.834;2023-06-24T05:45:43;100554.59;;;27.42;60.10
75938;BME280;64615;32.062;34.834;2023-06-24T05:48:08;100556.56;;;27.42;60.38
75938;BME280;64615;32.062;34.834;2023-06-24T05:50:34;100541.75;;;27.43;60.78
75938;BME280;64615;32.062;34.834;2023-06-24T05:53:00;100554.91;;;27.41;60.93
75938;BME280;64615;32.062;34.834;2023-06-24T05:55:25;100545.81;;;27.46;60.66
75938;BME280;64615;32.062;34.834;2023-06-24T05:57:51;100547.75;;;27.64;60.15
75938;BME280;64615;32.062;34.834;2023-06-24T06:00:18;100553.81;;;27.98;59.39
75938;BME280;64615;32.062;34.834;2023-06-24T06:02:43;100551.66;;;28.14;58.72
75938;BME280;64615;32.062;34.834;2023-06-24T06:05:09;100556.03;;;28.15;58.20
75938;BME280;64615;32.062;34.834;2023-06-24T06:07:35;100554.31;;;28.00;58.79
75938;BME280;64615;32.062;34.834;2023-06-24T06:10:03;100552.59;;;27.72;59.18
75938;BME280;64615;32.062;34.834;2023-06-24T06:12:28;100551.53;;;27.87;57.97
75938;BME280;64615;32.062;34.834;2023-06-24T06:14:54;100550.78;;;28.00;57.27
75938;BME280;64615;32.062;34.834;2023-06-24T06:17:19;100546.31;;;28.22;56.72
75938;BME280;64615;32.062;34.834;2023-06-24T06:19:45;100543.66;;;28.17;56.76
75938;BME280;64615;32.062;34.834;2023-06-24T06:22:12;100546.91;;;28.19;56.33
75938;BME280;64615;32.062;34.834;2023-06-24T06:24:39;100547.94;;;28.37;55.34
75938;BME280;64615;32.062;34.834;2023-06-24T06:27:08;100548.03;;;28.32;55.26
75938;BME280;64615;32.062;34.834;2023-06-24T06:29:34;100550.25;;;28.16;55.65
75938;BME280;64615;32.062;34.834;2023-06-24T06:32:00;100541.16;;;28.02;56.01
75938;BME280;64615;32.062;34.834;2023-06-24T06:34:25;100538.28;;;27.94;56.12
75938;BME280;64615;32.062;34.834;2023-06-24T06:36:51;100544.22;;;27.82;56.98
75938;BME280;64615;32.062;34.834;2023-06-24T06:39:17;100544.59;;;27.75;57.14
75938;BME280;64615;32.062;34.834;2023-06-24T06:41:42;100541.13;;;27.70;57.87
75938;BME280;64615;32.062;34.834;2023-06-24T06:44:08;100539.19;;;27.89;58.34
75938;BME280;64615;32.062;34.834;2023-06-24T06:46:33;100539.75;;;27.86;58.03
75938;BME280;64615;32.062;34.834;2023-06-24T06:48:59;100542.59;;;27.81;58.47
75938;BME280;64615;32.062;34.834;2023-06-24T06:51:25;100543.69;;;27.80;58.44
75938;BME280;64615;32.062;34.834;2023-06-24T06:53:51;100539.34;;;27.79;58.72
75938;BME280;64615;32.062;34.834;2023-06-24T06:56:18;100535.88;;;27.73;59.07
75938;BME280;64615;32.062;34.834;2023-06-24T06:58:44;100540.28;;;27.69;59.61
75938;BME280;64615;32.062;34.834;2023-06-24T07:01:09;100538.16;;;27.66;58.80
75938;BME280;64615;32.062;34.834;2023-06-24T07:03:35;100533.50;;;27.67;58.35
75938;BME280;64615;32.062;34.834;2023-06-24T07:06:00;100537.63;;;27.64;58.72
75938;BME280;64615;32.062;34.834;2023-06-24T07:08:27;100534.91;;;27.64;58.20
75938;BME280;64615;32.062;34.834;2023-06-24T07:10:52;100535.44;;;27.66;58.29
75938;BME280;64615;32.062;34.834;2023-06-24T07:13:18;100545.28;;;27.67;55.29
75938;BME280;64615;32.062;34.834;2023-06-24T07:15:43;100528.91;;;27.81;52.52
75938;BME280;64615;32.062;34.834;2023-06-24T07:18:09;100530.50;;;28.01;51.40
75938;BME280;64615;32.062;34.834;2023-06-24T07:20:35;100534.66;;;27.98;49.49
75938;BME280;64615;32.062;34.834;2023-06-24T07:23:00;100547.06;;;27.91;50.42
75938;BME280;64615;32.062;34.834;2023-06-24T07:25:26;100544.81;;;27.79;52.12
75938;BME280;64615;32.062;34.834;2023-06-24T07:27:53;100543.28;;;27.73;51.47
75938;BME280;64615;32.062;34.834;2023-06-24T07:30:19;100541.19;;;27.65;52.55
75938;BME280;64615;32.062;34.834;2023-06-24T07:32:44;100545.91;;;27.59;53.55
75938;BME280;64615;32.062;34.834;2023-06-24T07:35:10;100543.28;;;26.35;53.32
75938;BME280;64615;32.062;34.834;2023-06-24T07:37:36;100541.47;;;25.87;58.01
75938;BME280;64615;32.062;34.834;2023-06-24T07:40:02;100550.28;;;26.12;59.24
75938;BME280;64615;32.062;34.834;2023-06-24T07:42:29;100543.00;;;26.37;57.89
75938;BME280;64615;32.062;34.834;2023-06-24T07:44:54;100537.13;;;25.86;55.76
75938;BME280;64615;32.062;34.834;2023-06-24T07:47:20;100533.19;;;25.68;58.77
75938;BME280;64615;32.062;34.834;2023-06-24T07:49:45;100532.25;;;25.83;60.51
75938;BME280;64615;32.062;34.834;2023-06-24T07:52:11;100534.53;;;26.04;59.50
75938;BME280;64615;32.062;34.834;2023-06-24T07:54:37;100533.00;;;26.27;57.02
75938;BME280;64615;32.062;34.834;2023-06-24T07:57:03;100533.72;;;25.16;56.30
75938;BME280;64615;32.062;34.834;2023-06-24T07:59:28;100529.28;;;25.30;60.57
75938;BME280;64615;32.062;34.834;2023-06-24T08:01:54;100534.03;;;25.63;60.52
75938;BME280;64615;32.062;34.834;2023-06-24T08:04:20;100537.06;;;25.96;59.74
75938;BME280;64615;32.062;34.834;2023-06-24T08:06:46;100540.31;;;26.32;58.05
75938;BME280;64615;32.062;34.834;2023-06-24T08:09:11;100530.53;;;26.54;57.69
75938;BME280;64615;32.062;34.834;2023-06-24T08:11:37;100532.03;;;26.66;58.17
75938;BME280;64615;32.062;34.834;2023-06-24T08:14:02;100525.97;;;26.74;57.63
75938;BME280;64615;32.062;34.834;2023-06-24T08:16:29;100531.06;;;26.80;57.05
75938;BME280;64615;32.062;34.834;2023-06-24T08:18:55;100525.50;;;26.90;55.03
75938;BME280;64615;32.062;34.834;2023-06-24T08:21:20;100526.25;;;26.96;54.85
75938;BME280;64615;32.062;34.834;2023-06-24T08:23:46;100532.25;;;26.98;56.47
75938;BME280;64615;32.062;34.834;2023-06-24T08:26:12;100534.38;;;27.01;55.65
75938;BME280;64615;32.062;34.834;2023-06-24T08:28:38;100522.34;;;27.02;55.73
75938;BME280;64615;32.062;34.834;2023-06-24T08:31:03;100528.91;;;27.01;55.40
75938;BME280;64615;32.062;34.834;2023-06-24T08:33:29;100527.59;;;26.98;56.08
75938;BME280;64615;32.062;34.834;2023-06-24T08:35:55;100531.66;;;27.01;56.78
75938;BME280;64615;32.062;34.834;2023-06-24T08:38:20;100528.91;;;27.01;57.07
75938;BME280;64615;32.062;34.834;2023-06-24T08:40:46;100524.81;;;27.04;56.98
75938;BME280;64615;32.062;34.834;2023-06-24T08:43:12;100519.28;;;27.09;56.51
75938;BME280;64615;32.062;34.834;2023-06-24T08:45:38;100521.94;;;27.14;56.77
75938;BME280;64615;32.062;34.834;2023-06-24T08:48:04;100522.47;;;27.16;56.59
75938;BME280;64615;32.062;34.834;2023-06-24T08:50:40;100518.91;;;27.15;56.67
75938;BME280;64615;32.062;34.834;2023-06-24T08:53:09;100517.00;;;27.16;57.08
75938;BME280;64615;32.062;34.834;2023-06-24T08:55:43;100520.75;;;27.20;56.50
75938;BME280;64615;32.062;34.834;2023-06-24T08:58:08;100526.22;;;27.20;56.62
75938;BME280;64615;32.062;34.834;2023-06-24T09:00:34;100525.13;;;27.21;56.94
75938;BME280;64615;32.062;34.834;2023-06-24T09:03:00;100525.41;;;27.19;57.23
75938;BME280;64615;32.062;34.834;2023-06-24T09:05:26;100519.94;;;27.19;57.69
75938;BME280;64615;32.062;34.834;2023-06-24T09:07:52;100523.44;;;27.25;56.99
75938;BME280;64615;32.062;34.834;2023-06-24T09:10:31;100517.16;;;27.24;57.38
75938;BME280;64615;32.062;34.834;2023-06-24T09:12:58;100518.84;;;27.20;57.78
75938;BME280;64615;32.062;34.834;2023-06-24T09:15:24;100524.31;;;27.20;58.05
75938;BME280;64615;32.062;34.834;2023-06-24T09:17:49;100526.22;;;27.20;57.69
75938;BME280;64615;32.062;34.834;2023-06-24T09:20:15;100525.16;;;26.44;57.30
75938;BME280;64615;32.062;34.834;2023-06-24T09:22:45;100522.88;;;25.55;59.59
75938;BME280;64615;32.062;34.834;2023-06-24T09:25:17;100526.91;;;25.67;61.92
75938;BME280;64615;32.062;34.834;2023-06-24T09:27:47;100520.16;;;25.94;62.05
75938;BME280;64615;32.062;34.834;2023-06-24T09:30:21;100516.16;;;25.81;59.66
75938;BME280;64615;32.062;34.834;2023-06-24T09:32:48;100521.25;;;25.05;60.15
75938;BME280;64615;32.062;34.834;2023-06-24T09:35:14;100514.78;;;25.40;63.12
75938;BME280;64615;32.062;34.834;2023-06-24T09:37:41;100519.59;;;25.63;63.63
75938;BME280;64615;32.062;34.834;2023-06-24T09:40:08;100515.56;;;25.89;62.55
75938;BME280;64615;32.062;34.834;2023-06-24T09:42:35;100525.06;;;25.92;58.84
75938;BME280;64615;32.062;34.834;2023-06-24T09:45:05;100521.03;;;24.96;59.53
75938;BME280;64615;32.062;34.834;2023-06-24T09:47:31;100513.00;;;25.20;63.56
75938;BME280;64615;32.062;34.834;2023-06-24T09:49:57;100515.84;;;25.44;63.86
75938;BME280;64615;32.062;34.834;2023-06-24T09:52:23;100515.97;;;25.72;63.21
75938;BME280;64615;32.062;34.834;2023-06-24T09:54:51;100521.72;;;26.05;62.01
75938;BME280;64615;32.062;34.834;2023-06-24T09:57:21;100507.00;;;25.18;59.82
75938;BME280;64615;32.062;34.834;2023-06-24T09:59:49;100511.47;;;24.99;63.49
75938;BME280;64615;32.062;34.834;2023-06-24T10:02:16;100513.22;;;25.28;64.47
75938;BME280;64615;32.062;34.834;2023-06-24T10:04:41;100510.09;;;25.50;64.61
75938;BME280;64615;32.062;34.834;2023-06-24T10:07:09;100508.28;;;25.80;63.17
75938;BME280;64615;32.062;34.834;2023-06-24T10:09:34;100507.44;;;25.84;60.09
75938;BME280;64615;32.062;34.834;2023-06-24T10:12:00;100498.47;;;24.75;59.82
75938;BME280;64615;32.062;34.834;2023-06-24T10:14:26;100500.81;;;25.02;64.24
75938;BME280;64615;32.062;34.834;2023-06-24T10:17:01;100491.13;;;25.30;65.00
75938;BME280;64615;32.062;34.834;2023-06-24T10:19:27;100497.50;;;25.54;64.46
75938;BME280;64615;32.062;34.834;2023-06-24T10:21:54;100487.47;;;25.89;62.89
75938;BME280;64615;32.062;34.834;2023-06-24T10:24:36;100488.06;;;25.42;60.81
75938;BME280;64615;32.062;34.834;2023-06-24T10:27:18;100495.72;;;24.80;63.80
75938;BME280;64615;32.062;34.834;2023-06-24T10:29:51;100486.34;;;25.12;64.82
75938;BME280;64615;32.062;34.834;2023-06-24T10:32:18;100490.03;;;25.36;65.04
75938;BME280;64615;32.062;34.834;2023-06-24T10:34:45;100485.47;;;25.65;63.84
75938;BME280;64615;32.062;34.834;2023-06-24T10:37:25;100481.69;;;25.95;62.62
75938;BME280;64615;32.062;34.834;2023-06-24T10:39:52;100476.88;;;24.99;60.91
75938;BME280;64615;32.062;34.834;2023-06-24T10:42:38;100475.53;;;24.86;64.81
75938;BME280;64615;32.062;34.834;2023-06-24T10:50:03;100482.66;;;25.76;63.89
75938;BME280;64615;32.062;34.834;2023-06-24T10:52:29;100473.97;;;26.02;62.98
75938;BME280;64615;32.062;34.834;2023-06-24T10:54:57;100477.91;;;26.20;62.44
75938;BME280;64615;32.062;34.834;2023-06-24T10:57:27;100474.28;;;26.30;61.73
75938;BME280;64615;32.062;34.834;2023-06-24T10:59:54;100481.31;;;26.36;61.40
75938;BME280;64615;32.062;34.834;2023-06-24T11:02:25;100474.13;;;26.45;61.46
75938;BME280;64615;32.062;34.834;2023-06-24T11:07:22;100470.25;;;26.51;61.12
75938;BME280;64615;32.062;34.834;2023-06-24T11:09:52;100470.47;;;26.54;60.96
75938;BME280;64615;32.062;34.834;2023-06-24T11:12:22;100467.66;;;26.60;61.09
75938;BME280;64615;32.062;34.834;2023-06-24T11:14:48;100468.22;;;26.62;60.79
75938;BME280;64615;32.062;34.834;2023-06-24T11:17:14;100461.06;;;26.66;60.41
75938;BME280;64615;32.062;34.834;2023-06-24T11:19:40;100460.91;;;26.76;60.40
75938;BME280;64615;32.062;34.834;2023-06-24T11:22:09;100454.50;;;26.85;60.22
75938;BME280;64615;32.062;34.834;2023-06-24T11:24:35;100452.34;;;26.87;60.79
75938;BME280;64615;32.062;34.834;2023-06-24T11:27:01;100464.31;;;26.91;60.25
75938;BME280;64615;32.062;34.834;2023-06-24T11:29:31;100460.69;;;26.96;60.04
75938;BME280;64615;32.062;34.834;2023-06-24T11:31:57;100456.84;;;26.97;59.86
75938;BME280;64615;32.062;34.834;2023-06-24T11:34:23;100454.13;;;26.97;59.46
75938;BME280;64615;32.062;34.834;2023-06-24T11:36:49;100456.84;;;26.97;59.41
75938;BME280;64615;32.062;34.834;2023-06-24T11:39:22;100455.47;;;27.00;59.18
75938;BME280;64615;32.062;34.834;2023-06-24T11:41:48;100457.88;;;27.01;57.80
75938;BME280;64615;32.062;34.834;2023-06-24T11:44:14;100457.59;;;27.03;58.93
75938;BME280;64615;32.062;34.834;2023-06-24T11:46:40;100462.50;;;27.06;57.76
75938;BME280;64615;32.062;34.834;2023-06-24T11:49:06;100456.72;;;27.07;58.07
75938;BME280;64615;32.062;34.834;2023-06-24T11:51:33;100452.88;;;27.08;57.87
75938;BME280;64615;32.062;34.834;2023-06-24T11:54:03;100441.94;;;27.08;57.52
75938;BME280;64615;32.062;34.834;2023-06-24T11:56:39;100437.81;;;27.11;57.70
75938;BME280;64615;32.062;34.834;2023-06-24T11:59:22;100447.34;;;27.13;57.44
75938;BME280;64615;32.062;34.834;2023-06-24T12:01:53;100438.25;;;27.18;57.31
75938;BME280;64615;32.062;34.834;2023-06-24T12:04:20;100442.63;;;27.19;57.39
75938;BME280;64615;32.062;34.834;2023-06-24T12:06:46;100437.97;;;27.19;57.23
75938;BME280;64615;32.062;34.834;2023-06-24T12:09:11;100441.81;;;27.18;57.68
75938;BME280;64615;32.062;34.834;2023-06-24T12:11:37;100430.38;;;27.16;57.79
75938;BME280;64615;32.062;34.834;2023-06-24T12:14:05;100431.16;;;27.17;57.37
75938;BME280;64615;32.062;34.834;2023-06-24T12:16:31;100440.69;;;27.19;57.39
75938;BME280;64615;32.062;34.834;2023-06-24T12:18:56;100437.69;;;27.21;57.27
75938;BME280;64615;32.062;34.834;2023-06-24T12:21:22;100438.78;;;27.20;57.31
75938;BME280;64615;32.062;34.834;2023-06-24T12:23:48;100445.06;;;27.20;57.57
75938;BME280;64615;32.062;34.834;2023-06-24T12:26:13;100442.53;;;27.24;57.71
75938;BME280;64615;32.062;34.834;2023-06-24T12:28:39;100443.06;;;27.26;57.73
75938;BME280;64615;32.062;34.834;2023-06-24T12:31:05;100443.34;;;27.24;58.22
75938;BME280;64615;32.062;34.834;2023-06-24T12:33:31;100436.19;;;27.28;57.98
75938;BME280;64615;32.062;34.834;2023-06-24T12:35:56;100447.72;;;27.25;58.64
75938;BME280;64615;32.062;34.834;2023-06-24T12:38:22;100444.16;;;27.25;58.30
75938;BME280;64615;32.062;34.834;2023-06-24T12:40:48;100438.09;;;27.28;58.28
75938;BME280;64615;32.062;34.834;2023-06-24T12:43:14;100440.81;;;27.28;58.46
75938;BME280;64615;32.062;34.834;2023-06-24T12:45:43;100441.34;;;27.30;58.53
75938;BME280;64615;32.062;34.834;2023-06-24T12:48:09;100434.47;;;27.32;58.78
75938;BME280;64615;32.062;34.834;2023-06-24T12:50:35;100424.34;;;27.33;58.71
75938;BME280;64615;32.062;34.834;2023-06-24T12:53:01;100433.38;;;27.33;58.78
75938;BME280;64615;32.062;34.834;2023-06-24T12:55:28;100438.53;;;27.35;58.76
75938;BME280;64615;32.062;34.834;2023-06-24T12:57:54;100441.28;;;27.35;58.68